createdAt,value
2023-03-10T00:00:32.171Z,87.01
2023-03-10T00:01:32.383Z,87.11
2023-03-10T00:02:32.729Z,87.34
2023-03-10T00:03:33.670Z,87.68
2023-03-10T00:04:33.978Z,87.11
2023-03-10T00:05:35.005Z,86.68
2023-03-10T00:06:35.970Z,87.05
2023-03-10T00:07:36.015Z,87.11
2023-03-10T00:08:36.930Z,87.39
2023-03-10T00:09:37.490Z,87.72
2023-03-10T00:10:37.702Z,87.82
2023-03-10T00:11:38.644Z,88.1
2023-03-10T00:12:39.420Z,88.01
2023-03-10T00:13:39.936Z,87.77
2023-03-10T00:14:40.634Z,87.15
2023-03-10T00:15:41.605Z,87.3
2023-03-10T00:16:42.100Z,87.58
2023-03-10T00:17:42.340Z,87.11
2023-03-10T00:18:42.565Z,87.15
2023-03-10T00:19:42.810Z,86.01
2023-03-10T00:20:43.292Z,86.63
2023-03-10T00:21:43.996Z,86.87
2023-03-10T00:22:44.122Z,86.91
2023-03-10T00:23:44.634Z,86.77
2023-03-10T00:24:44.596Z,86.87
2023-03-10T00:25:45.518Z,86.96
2023-03-10T00:26:46.142Z,86.68
2023-03-10T00:27:47.120Z,86.68
2023-03-10T00:28:47.338Z,85.72
2023-03-10T00:29:48.268Z,86.01
2023-03-10T00:30:48.759Z,86.01
2023-03-10T00:31:48.844Z,86.11
2023-03-10T00:32:49.900Z,86.11
2023-03-10T00:33:50.507Z,85.72
2023-03-10T00:34:51.463Z,86.11
2023-03-10T00:35:51.468Z,86.2
2023-03-10T00:36:51.952Z,85.72
2023-03-10T00:37:52.183Z,86.3
2023-03-10T00:38:53.126Z,86.11
2023-03-10T00:39:53.384Z,85.91
2023-03-10T00:40:53.944Z,86.01
2023-03-10T00:41:54.295Z,86.39
2023-03-10T00:42:54.915Z,86.77
2023-03-10T00:43:55.581Z,86.58
2023-03-10T00:44:55.522Z,86.91
2023-03-10T00:45:56.395Z,86.72
2023-03-10T00:46:56.865Z,87.24
2023-03-10T00:47:57.881Z,87.24
2023-03-10T00:48:58.514Z,87.11
2023-03-10T00:49:59.724Z,87.05
2023-03-10T00:50:59.926Z,86.91
2023-03-10T00:52:00.629Z,85.68
2023-03-10T00:53:01.651Z,85.78
2023-03-10T00:54:02.571Z,85.87
2023-03-10T00:55:02.897Z,85.72
2023-03-10T00:56:03.819Z,86.2
2023-03-10T00:57:03.755Z,86.3
2023-03-10T00:58:04.243Z,86.16
2023-03-10T00:59:04.736Z,86.25
2023-03-10T01:00:05.651Z,86.01
2023-03-10T01:01:06.297Z,85.72
2023-03-10T01:02:07.503Z,86.11
2023-03-10T01:03:07.830Z,86.54
2023-03-10T01:04:08.575Z,87.11
2023-03-10T01:05:09.380Z,86.72
2023-03-10T01:06:09.585Z,86.87
2023-03-10T01:07:10.242Z,86.72
2023-03-10T01:08:10.749Z,86.77
2023-03-10T01:09:11.238Z,86.2
2023-03-10T01:10:11.782Z,86.39
2023-03-10T01:11:11.994Z,87.3
2023-03-10T01:12:12.909Z,87.77
2023-03-10T01:13:12.967Z,87.49
2023-03-10T01:14:14.167Z,87.58
2023-03-10T01:15:14.807Z,88.06
2023-03-10T01:16:16.163Z,88.06
2023-03-10T01:17:16.649Z,88.15
2023-03-10T01:18:17.872Z,88.24
2023-03-10T01:19:18.399Z,87.49
2023-03-10T01:20:18.309Z,87.87
2023-03-10T01:21:19.219Z,87.77
2023-03-10T01:22:20.172Z,87.39
2023-03-10T01:23:20.214Z,87.2
2023-03-10T01:24:20.585Z,87.39
2023-03-10T01:25:21.128Z,87.77
2023-03-10T01:26:24.005Z,88.43
2023-03-10T01:27:22.227Z,88.43
2023-03-10T01:28:22.437Z,88.43
2023-03-10T01:29:23.369Z,88.06
2023-03-10T01:30:23.570Z,87.87
2023-03-10T01:31:23.601Z,88.06
2023-03-10T01:32:24.626Z,87.68
2023-03-10T01:33:24.876Z,87.68
2023-03-10T01:34:25.375Z,87.77
2023-03-10T01:35:25.900Z,88.24
2023-03-10T01:36:26.285Z,88.06
2023-03-10T01:37:27.248Z,87.77
2023-03-10T01:38:28.218Z,87.77
2023-03-10T01:39:28.516Z,87.2
2023-03-10T01:40:29.220Z,86.91
2023-03-10T01:41:30.153Z,87.3
2023-03-10T01:42:31.369Z,87.01
2023-03-10T01:43:31.963Z,87.01
2023-03-10T01:44:32.654Z,86.44
2023-03-10T01:45:33.556Z,86.54
2023-03-10T01:46:34.251Z,86.44
2023-03-10T01:47:34.859Z,86.44
2023-03-10T01:48:35.123Z,86.35
2023-03-10T01:49:35.046Z,86.35
2023-03-10T01:50:35.986Z,86.44
2023-03-10T01:51:36.944Z,86.44
2023-03-10T01:52:37.287Z,86.44
2023-03-10T01:53:37.472Z,86.16
2023-03-10T01:54:37.925Z,86.11
2023-03-10T01:55:37.900Z,86.07
2023-03-10T01:56:38.821Z,86.39
2023-03-10T01:57:39.443Z,86.01
2023-03-10T01:58:40.369Z,85.97
2023-03-10T01:59:41.284Z,86.39
2023-03-10T02:00:41.585Z,86.82
2023-03-10T02:01:42.636Z,86.87
2023-03-10T02:02:43.121Z,85.97
2023-03-10T02:03:44.494Z,86.44
2023-03-10T02:04:44.995Z,86.49
2023-03-10T02:05:45.497Z,86.68
2023-03-10T02:06:45.693Z,86.91
2023-03-10T02:07:47.023Z,86.2
2023-03-10T02:08:49.620Z,86.58
2023-03-10T02:09:48.119Z,86.39
2023-03-10T02:10:48.362Z,86.3
2023-03-10T02:11:48.586Z,86.07
2023-03-10T02:12:49.213Z,86.39
2023-03-10T02:13:49.677Z,85.78
2023-03-10T02:14:50.625Z,86.25
2023-03-10T02:15:51.125Z,86.2
2023-03-10T02:16:51.613Z,85.82
2023-03-10T02:17:52.413Z,85.72
2023-03-10T02:18:52.834Z,86.01
2023-03-10T02:19:53.135Z,86.11
2023-03-10T02:20:54.163Z,86.58
2023-03-10T02:21:54.383Z,85.97
2023-03-10T02:22:54.889Z,86.39
2023-03-10T02:24:06.103Z,85.72
2023-03-10T02:24:55.489Z,85.91
2023-03-10T02:25:56.017Z,85.35
2023-03-10T02:26:56.505Z,85.72
2023-03-10T02:27:56.711Z,85.82
2023-03-10T02:28:57.352Z,85.72
2023-03-10T02:30:05.122Z,85.82
2023-03-10T02:30:58.768Z,85.53
2023-03-10T02:31:59.153Z,85.72
2023-03-10T02:33:00.037Z,85.63
2023-03-10T02:34:00.388Z,85.72
2023-03-10T02:35:01.037Z,85.91
2023-03-10T02:36:01.741Z,86.01
2023-03-10T02:37:01.608Z,85.53
2023-03-10T02:38:02.847Z,86.01
2023-03-10T02:39:03.079Z,86.2
2023-03-10T02:40:03.293Z,86.77
2023-03-10T02:41:03.880Z,86.11
2023-03-10T02:42:04.560Z,86.11
2023-03-10T02:43:05.542Z,86.68
2023-03-10T02:44:06.620Z,86.68
2023-03-10T02:45:07.554Z,86.58
2023-03-10T02:46:07.877Z,86.39
2023-03-10T02:47:08.476Z,86.11
2023-03-10T02:48:09.121Z,86.2
2023-03-10T02:49:10.440Z,85.72
2023-03-10T02:50:10.681Z,86.11
2023-03-10T02:51:11.171Z,86.11
2023-03-10T02:52:11.394Z,85.97
2023-03-10T02:53:12.057Z,86.49
2023-03-10T02:54:12.410Z,86.68
2023-03-10T02:55:12.932Z,86.91
2023-03-10T02:56:13.202Z,86.68
2023-03-10T02:57:13.417Z,86.68
2023-03-10T02:58:14.057Z,86.82
2023-03-10T02:59:15.024Z,86.91
2023-03-10T03:00:15.244Z,86.54
2023-03-10T03:01:16.127Z,86.44
2023-03-10T03:02:16.745Z,86.44
2023-03-10T03:03:17.439Z,86.63
2023-03-10T03:04:18.294Z,86.44
2023-03-10T03:05:18.857Z,86.07
2023-03-10T03:06:19.786Z,85.91
2023-03-10T03:07:20.720Z,85.53
2023-03-10T03:08:21.323Z,85.63
2023-03-10T03:09:21.540Z,85.82
2023-03-10T03:10:21.899Z,85.53
2023-03-10T03:11:22.435Z,85.82
2023-03-10T03:12:23.093Z,85.53
2023-03-10T03:13:24.032Z,86.01
2023-03-10T03:14:25.223Z,85.44
2023-03-10T03:15:25.149Z,85.25
2023-03-10T03:16:25.266Z,84.97
2023-03-10T03:17:25.574Z,85.91
2023-03-10T03:18:26.489Z,84.97
2023-03-10T03:19:29.752Z,84.87
2023-03-10T03:20:27.944Z,84.11
2023-03-10T03:21:28.905Z,84.68
2023-03-10T03:22:29.100Z,85.91
2023-03-10T03:23:29.652Z,85.82
2023-03-10T03:24:30.011Z,85.72
2023-03-10T03:25:30.266Z,84.68
2023-03-10T03:26:30.821Z,84.11
2023-03-10T03:27:31.458Z,84.21
2023-03-10T03:28:31.700Z,84.21
2023-03-10T03:29:32.951Z,84.3
2023-03-10T03:30:32.879Z,84.11
2023-03-10T03:31:33.566Z,84.49
2023-03-10T03:32:33.820Z,84.01
2023-03-10T03:33:33.574Z,84.01
2023-03-10T03:34:34.366Z,84.11
2023-03-10T03:35:35.467Z,84.4
2023-03-10T03:36:35.772Z,84.78
2023-03-10T03:37:36.761Z,84.87
2023-03-10T03:38:37.719Z,85.72
2023-03-10T03:39:38.060Z,85.82
2023-03-10T03:40:38.562Z,85.63
2023-03-10T03:41:38.671Z,85.63
2023-03-10T03:42:39.614Z,85.63
2023-03-10T03:43:40.521Z,85.91
2023-03-10T03:44:40.916Z,86.2
2023-03-10T03:45:41.220Z,85.44
2023-03-10T03:46:41.311Z,85.82
2023-03-10T03:47:42.672Z,85.72
2023-03-10T03:48:42.867Z,85.63
2023-03-10T03:49:43.448Z,85.82
2023-03-10T03:50:44.101Z,85.35
2023-03-10T03:51:44.743Z,85.16
2023-03-10T03:52:45.867Z,84.78
2023-03-10T03:53:46.101Z,84.87
2023-03-10T03:54:46.424Z,84.11
2023-03-10T03:55:47.365Z,83.73
2023-03-10T03:56:47.331Z,84.21
2023-03-10T03:57:48.556Z,83.92
2023-03-10T03:58:49.516Z,84.21
2023-03-10T03:59:50.507Z,84.11
2023-03-10T04:00:51.910Z,84.01
2023-03-10T04:01:51.906Z,84.97
2023-03-10T04:02:52.221Z,84.78
2023-03-10T04:03:52.997Z,85.16
2023-03-10T04:04:53.308Z,85.16
2023-03-10T04:05:53.231Z,85.35
2023-03-10T04:06:54.140Z,85.25
2023-03-10T04:07:54.789Z,85.63
2023-03-10T04:08:56.018Z,84.87
2023-03-10T04:09:56.241Z,85.16
2023-03-10T04:10:56.885Z,85.16
2023-03-10T04:11:57.140Z,85.16
2023-03-10T04:12:57.381Z,84.87
2023-03-10T04:13:58.022Z,84.59
2023-03-10T04:14:58.294Z,84.49
2023-03-10T04:15:59.769Z,84.63
2023-03-10T04:17:00.198Z,84.72
2023-03-10T04:18:01.161Z,84.91
2023-03-10T04:19:01.405Z,84.82
2023-03-10T04:20:12.467Z,85.11
2023-03-10T04:21:03.112Z,85.49
2023-03-10T04:22:03.050Z,85.96
2023-03-10T04:23:03.964Z,85.58
2023-03-10T04:24:04.915Z,86.53
2023-03-10T04:25:05.582Z,87.67
2023-03-10T04:26:06.244Z,87.86
2023-03-10T04:27:06.921Z,87.76
2023-03-10T04:28:07.846Z,88.34
2023-03-10T04:29:08.339Z,89.47
2023-03-10T04:30:08.835Z,89.76
2023-03-10T04:31:09.940Z,88.9
2023-03-10T04:32:11.518Z,89.67
2023-03-10T04:33:10.946Z,89.86
2023-03-10T04:34:11.230Z,90.05
2023-03-10T04:35:12.237Z,89.8
2023-03-10T04:36:12.615Z,90.75
2023-03-10T04:37:12.749Z,91.42
2023-03-10T04:38:13.113Z,91.61
2023-03-10T04:39:13.850Z,91.23
2023-03-10T04:40:13.995Z,90.75
2023-03-10T04:41:15.186Z,91.52
2023-03-10T04:42:15.506Z,91.52
2023-03-10T04:43:16.456Z,91.8
2023-03-10T04:44:33.697Z,92.37
2023-03-10T04:45:22.024Z,92.85
2023-03-10T04:46:22.904Z,92.56
2023-03-10T04:47:23.172Z,92.56
2023-03-10T04:48:23.380Z,92.27
2023-03-10T04:49:24.592Z,92.56
2023-03-10T04:50:25.534Z,92.46
2023-03-10T04:51:25.600Z,92.94
2023-03-10T04:52:26.524Z,93.6
2023-03-10T04:53:27.460Z,93.23
2023-03-10T04:54:27.689Z,93.79
2023-03-10T04:55:28.026Z,94.18
2023-03-10T04:56:28.533Z,93.99
2023-03-10T04:57:29.074Z,94.27
2023-03-10T04:58:29.295Z,94.37
2023-03-10T04:59:29.523Z,94.27
2023-03-10T05:00:29.575Z,94.98
2023-03-10T05:01:30.589Z,95.08
2023-03-10T05:02:30.726Z,95.08
2023-03-10T05:03:31.232Z,95.46
2023-03-10T05:04:32.173Z,95.46
2023-03-10T05:05:33.403Z,95.46
2023-03-10T05:06:33.204Z,95.46
2023-03-10T05:07:33.848Z,95.17
2023-03-10T05:08:34.797Z,95.17
2023-03-10T05:09:35.342Z,94.89
2023-03-10T05:10:35.887Z,95.46
2023-03-10T05:11:36.532Z,95.65
2023-03-10T05:12:36.865Z,95.46
2023-03-10T05:13:37.811Z,95.46
2023-03-10T05:14:38.047Z,96.41
2023-03-10T05:15:39.121Z,96.31
2023-03-10T05:16:39.279Z,96.31
2023-03-10T05:17:40.490Z,96.46
2023-03-10T05:18:41.197Z,96.12
2023-03-10T05:19:41.143Z,96.6
2023-03-10T05:20:41.689Z,96.89
2023-03-10T05:21:42.006Z,96.79
2023-03-10T05:22:42.956Z,96.46
2023-03-10T05:23:43.187Z,95.98
2023-03-10T05:24:43.772Z,96.46
2023-03-10T05:25:43.932Z,96.17
2023-03-10T05:26:44.859Z,96.46
2023-03-10T05:27:45.823Z,95.89
2023-03-10T05:28:45.734Z,95.7
2023-03-10T05:29:46.957Z,95.89
2023-03-10T05:30:47.159Z,95.32
2023-03-10T05:31:48.394Z,94.46
2023-03-10T05:32:48.545Z,94.56
2023-03-10T05:33:48.780Z,94.65
2023-03-10T05:34:48.690Z,94.84
2023-03-10T05:35:49.935Z,95.32
2023-03-10T05:36:50.023Z,94.46
2023-03-10T05:37:51.087Z,94.74
2023-03-10T05:38:51.307Z,94.74
2023-03-10T05:39:52.319Z,94.37
2023-03-10T05:40:52.248Z,94.27
2023-03-10T05:41:53.481Z,94.08
2023-03-10T05:42:54.467Z,93.7
2023-03-10T05:43:55.108Z,94.18
2023-03-10T05:44:55.763Z,94.46
2023-03-10T05:45:56.541Z,94.65
2023-03-10T05:46:57.493Z,93.89
2023-03-10T05:47:57.978Z,93.89
2023-03-10T05:48:58.201Z,94.08
2023-03-10T05:49:58.402Z,93.98
2023-03-10T05:50:58.631Z,93.98
2023-03-10T05:51:58.553Z,94.27
2023-03-10T05:52:59.197Z,94.74
2023-03-10T05:53:59.837Z,94.46
2023-03-10T05:55:00.788Z,95.12
2023-03-10T05:56:01.821Z,94.79
2023-03-10T05:57:02.717Z,94.84
2023-03-10T05:58:03.037Z,95.22
2023-03-10T05:59:04.027Z,94.93
2023-03-10T06:00:04.353Z,95.32
2023-03-10T06:01:04.923Z,95.51
2023-03-10T06:02:05.124Z,95.6
2023-03-10T06:03:05.410Z,95.32
2023-03-10T06:04:05.655Z,96.08
2023-03-10T06:05:06.268Z,95.89
2023-03-10T06:06:06.480Z,95.98
2023-03-10T06:07:06.808Z,96.55
2023-03-10T06:08:07.434Z,96.55
2023-03-10T06:09:07.686Z,96.36
2023-03-10T06:10:08.035Z,96.26
2023-03-10T06:11:08.547Z,96.36
2023-03-10T06:12:09.482Z,96.26
2023-03-10T06:13:10.146Z,96.84
2023-03-10T06:14:11.464Z,96.74
2023-03-10T06:15:12.378Z,96.55
2023-03-10T06:16:12.751Z,96.55
2023-03-10T06:17:13.465Z,97.13
2023-03-10T06:18:13.843Z,97.03
2023-03-10T06:19:14.779Z,97.41
2023-03-10T06:20:14.701Z,97.5
2023-03-10T06:21:15.347Z,97.5
2023-03-10T06:22:15.295Z,96.74
2023-03-10T06:23:15.924Z,96.08
2023-03-10T06:24:16.848Z,94.56
2023-03-10T06:25:17.083Z,94.74
2023-03-10T06:26:17.165Z,95.22
2023-03-10T06:27:17.675Z,95.32
2023-03-10T06:28:17.991Z,95.89
2023-03-10T06:29:18.918Z,96.55
2023-03-10T06:30:19.567Z,96.94
2023-03-10T06:31:19.977Z,97.13
2023-03-10T06:32:20.415Z,97.6
2023-03-10T06:33:20.932Z,97.79
2023-03-10T06:34:21.868Z,97.79
2023-03-10T06:35:22.091Z,97.69
2023-03-10T06:36:22.408Z,96.84
2023-03-10T06:37:22.335Z,96.55
2023-03-10T06:38:23.610Z,96.94
2023-03-10T06:39:25.466Z,96.17
2023-03-10T06:40:23.906Z,96.36
2023-03-10T06:41:24.145Z,96.17
2023-03-10T06:42:25.057Z,95.7
2023-03-10T06:43:25.593Z,95.22
2023-03-10T06:44:26.260Z,94.74
2023-03-10T06:45:26.486Z,94.56
2023-03-10T06:46:26.757Z,95.03
2023-03-10T06:47:27.828Z,94.65
2023-03-10T06:48:28.500Z,94.7
2023-03-10T06:49:29.421Z,94.42
2023-03-10T06:50:31.620Z,95.08
2023-03-10T06:51:30.716Z,94.98
2023-03-10T06:52:31.219Z,95.27
2023-03-10T06:53:32.163Z,95.84
2023-03-10T06:54:32.406Z,96.98
2023-03-10T06:55:33.353Z,97.17
2023-03-10T06:56:33.689Z,97.64
2023-03-10T06:57:34.374Z,98.03
2023-03-10T06:58:34.617Z,97.93
2023-03-10T06:59:35.832Z,98.17
2023-03-10T07:00:36.149Z,97.97
2023-03-10T07:01:36.731Z,98.79
2023-03-10T07:02:37.233Z,98.74
2023-03-10T07:03:38.204Z,98.93
2023-03-10T07:04:38.355Z,98.74
2023-03-10T07:05:38.396Z,98.6
2023-03-10T07:06:38.824Z,98.93
2023-03-10T07:07:39.752Z,98.93
2023-03-10T07:08:40.409Z,98.97
2023-03-10T07:09:40.663Z,97.97
2023-03-10T07:10:41.178Z,96.69
2023-03-10T07:11:41.829Z,96.03
2023-03-10T07:12:43.068Z,95.56
2023-03-10T07:13:43.671Z,93.84
2023-03-10T07:14:44.344Z,92.99
2023-03-10T07:15:45.490Z,91.66
2023-03-10T07:16:45.125Z,91.47
2023-03-10T07:17:45.569Z,90.8
2023-03-10T07:18:46.501Z,91.37
2023-03-10T07:19:47.436Z,90.52
2023-03-10T07:20:48.016Z,89.47
2023-03-10T07:21:48.388Z,89.51
2023-03-10T07:22:49.040Z,89.09
2023-03-10T07:23:49.266Z,89.04
2023-03-10T07:24:49.481Z,89.42
2023-03-10T07:25:49.428Z,88.52
2023-03-10T07:26:49.794Z,88.42
2023-03-10T07:27:50.279Z,88.37
2023-03-10T07:28:50.694Z,87.99
2023-03-10T07:29:50.912Z,87.52
2023-03-10T07:30:51.273Z,87.52
2023-03-10T07:31:51.752Z,87.8
2023-03-10T07:32:52.406Z,88.37
2023-03-10T07:33:53.081Z,88.09
2023-03-10T07:34:54.036Z,87.9
2023-03-10T07:35:54.310Z,87.9
2023-03-10T07:36:54.924Z,87.99
2023-03-10T07:37:55.155Z,88.46
2023-03-10T07:38:55.394Z,88.75
2023-03-10T07:39:56.038Z,88.37
2023-03-10T07:40:57.403Z,88.56
2023-03-10T07:41:58.481Z,88.75
2023-03-10T07:42:58.981Z,88.09
2023-03-10T07:43:59.083Z,86.66
2023-03-10T07:45:00.040Z,86.09
2023-03-10T07:46:00.434Z,86.38
2023-03-10T07:47:01.108Z,86.66
2023-03-10T07:48:01.333Z,87.13
2023-03-10T07:49:02.277Z,86.38
2023-03-10T07:50:02.551Z,85.71
2023-03-10T07:51:02.769Z,85.42
2023-03-10T07:52:04.039Z,84.76
2023-03-10T07:53:05.006Z,84.19
2023-03-10T07:54:05.226Z,84.28
2023-03-10T07:55:05.735Z,84.28
2023-03-10T07:56:06.416Z,83.04
2023-03-10T07:57:07.096Z,82.76
2023-03-10T07:58:07.594Z,81.95
2023-03-10T07:59:07.916Z,80.99
2023-03-10T08:00:08.851Z,80.42
2023-03-10T08:01:09.371Z,80.33
2023-03-10T08:02:09.594Z,79.57
2023-03-10T08:03:09.531Z,79.28
2023-03-10T08:04:11.293Z,78.14
2023-03-10T08:05:11.552Z,78.04
2023-03-10T08:06:12.362Z,78.14
2023-03-10T08:07:13.169Z,77.76
2023-03-10T08:08:13.729Z,77.95
2023-03-10T08:09:13.985Z,77.85
2023-03-10T08:10:14.495Z,78.14
2023-03-10T08:11:15.518Z,78.14
2023-03-10T08:12:16.227Z,78.37
2023-03-10T08:13:16.945Z,78.9
2023-03-10T08:14:19.187Z,78.42
2023-03-10T08:15:18.314Z,78.71
2023-03-10T08:16:18.751Z,78.75
2023-03-10T08:17:19.096Z,78.27
2023-03-10T08:18:19.530Z,77.89
2023-03-10T08:19:19.766Z,77.8
2023-03-10T08:20:19.978Z,78.08
2023-03-10T08:21:20.902Z,78.17
2023-03-10T08:22:22.687Z,78.08
2023-03-10T08:23:22.973Z,77.61
2023-03-10T08:24:22.898Z,76.84
2023-03-10T08:25:23.566Z,76.56
2023-03-10T08:26:24.875Z,76.65
2023-03-10T08:27:25.119Z,76.94
2023-03-10T08:28:25.232Z,76.56
2023-03-10T08:29:25.784Z,76.21
2023-03-10T08:30:26.640Z,75.45
2023-03-10T08:31:27.225Z,76.31
2023-03-10T08:32:27.390Z,75.84
2023-03-10T08:33:27.829Z,75.2
2023-03-10T08:34:28.053Z,74.06
2023-03-10T08:35:28.199Z,73.62
2023-03-10T08:36:28.626Z,73.05
2023-03-10T08:37:29.133Z,72.48
2023-03-10T08:38:29.711Z,71.37
2023-03-10T08:39:33.097Z,71.27
2023-03-10T08:40:30.646Z,70.61
2023-03-10T08:41:31.250Z,70.36
2023-03-10T08:42:31.856Z,70.73
2023-03-10T08:43:32.354Z,69.97
2023-03-10T08:44:32.712Z,69.78
2023-03-10T08:45:33.301Z,69.21
2023-03-10T08:46:34.120Z,68.92
2023-03-10T08:47:37.775Z,68.63
2023-03-10T08:48:35.879Z,68.54
2023-03-10T08:49:36.605Z,68.57
2023-03-10T08:50:37.420Z,68.57
2023-03-10T08:51:38.119Z,68.86
2023-03-10T08:52:38.679Z,68.67
2023-03-10T08:53:39.434Z,68.1
2023-03-10T08:54:40.201Z,68.29
2023-03-10T08:55:40.707Z,67.27
2023-03-10T08:56:41.760Z,66.41
2023-03-10T08:57:42.514Z,64.53
2023-03-10T08:58:42.558Z,63.96
2023-03-10T08:59:43.130Z,63.29
2023-03-10T09:00:44.098Z,62.46
2023-03-10T09:01:45.142Z,61.63
2023-03-10T09:02:46.184Z,60.67
2023-03-10T09:03:46.574Z,60.8
2023-03-10T09:04:46.866Z,60.64
2023-03-10T09:05:47.147Z,60.25
2023-03-10T09:06:47.387Z,58.81
2023-03-10T09:07:47.871Z,58.44
2023-03-10T09:08:47.869Z,58.94
2023-03-10T09:09:48.401Z,58.72
2023-03-10T09:10:48.601Z,58.44
2023-03-10T09:11:49.183Z,58.53
2023-03-10T09:12:51.328Z,59.08
2023-03-10T09:13:50.778Z,59.36
2023-03-10T09:14:51.703Z,59.72
2023-03-10T09:15:51.919Z,60.77
2023-03-10T09:16:52.239Z,60.67
2023-03-10T09:17:53.055Z,61.05
2023-03-10T09:18:53.374Z,60.48
2023-03-10T09:19:53.621Z,60.83
2023-03-10T09:20:54.613Z,61.51
2023-03-10T09:21:54.888Z,61.15
2023-03-10T09:22:55.223Z,59.62
2023-03-10T09:23:56.209Z,58.53
2023-03-10T09:24:58.771Z,58.72
2023-03-10T09:25:57.251Z,58.24
2023-03-10T09:26:57.809Z,58.53
2023-03-10T09:27:58.601Z,59.11
2023-03-10T09:29:02.344Z,59.01
2023-03-10T09:30:01.055Z,58.72
2023-03-10T09:31:00.736Z,57.86
2023-03-10T09:32:01.813Z,57.67
2023-03-10T09:33:02.898Z,57.38
2023-03-10T09:34:03.265Z,57.48
2023-03-10T09:35:03.495Z,57.38
2023-03-10T09:36:12.207Z,57.57
2023-03-10T09:37:06.008Z,57.76
2023-03-10T09:38:05.804Z,59.11
2023-03-10T09:39:06.358Z,58.05
2023-03-10T09:40:07.488Z,58.34
2023-03-10T09:41:08.661Z,58.02
2023-03-10T09:42:09.043Z,57.92
2023-03-10T09:43:10.064Z,58.69
2023-03-10T09:44:10.022Z,58.02
2023-03-10T09:45:10.608Z,58.5
2023-03-10T09:46:11.688Z,58.88
2023-03-10T09:47:12.446Z,58.79
2023-03-10T09:48:12.633Z,59.23
2023-03-10T09:49:13.094Z,60
2023-03-10T09:50:13.597Z,59.81
2023-03-10T09:51:13.831Z,60.48
2023-03-10T09:52:16.907Z,60.96
2023-03-10T09:53:15.670Z,60.58
2023-03-10T09:54:15.907Z,60.86
2023-03-10T09:55:18.710Z,61.05
2023-03-10T09:56:17.047Z,61.51
2023-03-10T09:57:17.868Z,61.88
2023-03-10T09:58:19.095Z,62.24
2023-03-10T09:59:20.207Z,62.71
2023-03-10T10:00:19.532Z,62.9
2023-03-10T10:01:20.769Z,63.73
2023-03-10T10:02:21.294Z,63.64
2023-03-10T10:03:21.672Z,63.83
2023-03-10T10:04:22.348Z,64.69
2023-03-10T10:05:22.756Z,65.14
2023-03-10T10:06:25.740Z,66.19
2023-03-10T10:07:25.053Z,68.57
2023-03-10T10:08:28.504Z,71.02
2023-03-10T10:09:26.071Z,72.55
2023-03-10T10:10:26.323Z,75.09
2023-03-10T10:11:26.577Z,78.05
2023-03-10T10:12:26.836Z,80.3
2023-03-10T10:13:27.624Z,82.2
2023-03-10T10:14:36.946Z,84.11
2023-03-10T10:15:27.973Z,86.21
2023-03-10T10:16:39.204Z,88.74
2023-03-10T10:17:28.827Z,90.36
2023-03-10T10:18:32.799Z,91.69
2023-03-10T10:19:35.567Z,92.89
2023-03-10T10:20:33.801Z,94.37
2023-03-10T10:21:47.215Z,95.79
2023-03-10T10:22:34.716Z,96.98
2023-03-10T10:23:34.952Z,99.36
2023-03-10T10:24:35.559Z,99.79
2023-03-10T10:25:36.215Z,99.99
2023-03-10T10:26:37.557Z,99.99
2023-03-10T10:27:38.582Z,99.99
2023-03-10T10:28:38.891Z,99.99
2023-03-10T10:29:39.827Z,99.99
2023-03-10T10:30:39.968Z,99.98
2023-03-10T10:31:41.516Z,99.6
2023-03-10T10:32:41.471Z,99.99
2023-03-10T10:33:43.674Z,99.02
2023-03-10T10:34:42.714Z,98.08
2023-03-10T10:35:42.787Z,98.22
2023-03-10T10:36:43.140Z,97.41
2023-03-10T10:37:46.629Z,96.55
2023-03-10T10:38:44.950Z,95.7
2023-03-10T10:39:45.882Z,93.98
2023-03-10T10:40:46.812Z,93.41
2023-03-10T10:41:46.750Z,93.13
2023-03-10T10:42:47.003Z,92.56
2023-03-10T10:43:47.267Z,91.99
2023-03-10T10:44:48.518Z,91.89
2023-03-10T10:45:49.335Z,91.03
2023-03-10T10:46:49.176Z,90.37
2023-03-10T10:47:50.438Z,89.89
2023-03-10T10:48:50.321Z,88.32
2023-03-10T10:49:50.839Z,87.27
2023-03-10T10:50:50.838Z,87.27
2023-03-10T10:51:53.166Z,87.85
2023-03-10T10:52:52.750Z,88.51
2023-03-10T10:53:53.062Z,88.04
2023-03-10T10:54:53.513Z,88.89
2023-03-10T10:55:54.495Z,87.56
2023-03-10T10:56:55.023Z,86.8
2023-03-10T10:57:56.022Z,85.08
2023-03-10T10:58:56.120Z,83.32
2023-03-10T10:59:57.352Z,83.32
2023-03-10T11:00:57.507Z,84.27
2023-03-10T11:01:58.317Z,84.46
2023-03-10T11:02:59.336Z,82.75
2023-03-10T11:04:00.269Z,82.18
2023-03-10T11:05:00.486Z,82.08
2023-03-10T11:06:02.028Z,80.84
2023-03-10T11:07:01.285Z,79.22
2023-03-10T11:08:01.220Z,78.65
2023-03-10T11:09:02.306Z,78.65
2023-03-10T11:10:03.358Z,79.32
2023-03-10T11:11:03.298Z,79.36
2023-03-10T11:12:03.639Z,78.69
2023-03-10T11:13:04.193Z,78.22
2023-03-10T11:14:04.759Z,77.93
2023-03-10T11:15:05.116Z,77.45
2023-03-10T11:16:06.458Z,76.5
2023-03-10T11:17:06.740Z,75.36
2023-03-10T11:18:07.378Z,75.11
2023-03-10T11:19:07.788Z,76.73
2023-03-10T11:20:08.806Z,76.35
2023-03-10T11:21:09.490Z,75.72
2023-03-10T11:22:10.137Z,78.01
2023-03-10T11:23:11.345Z,80.01
2023-03-10T11:24:11.646Z,81.25
2023-03-10T11:25:12.693Z,80.33
2023-03-10T11:26:13.648Z,81.44
2023-03-10T11:27:13.888Z,80.3
2023-03-10T11:28:14.154Z,79.38
2023-03-10T11:29:14.892Z,79.86
2023-03-10T11:30:15.697Z,79.38
2023-03-10T11:31:16.122Z,78.91
2023-03-10T11:32:16.564Z,79.14
2023-03-10T11:33:17.438Z,79.8
2023-03-10T11:34:17.972Z,77.7
2023-03-10T11:35:18.921Z,77.42
2023-03-10T11:36:19.021Z,77.7
2023-03-10T11:37:19.656Z,77.8
2023-03-10T11:38:19.590Z,78.09
2023-03-10T11:39:20.346Z,77.42
2023-03-10T11:40:20.609Z,76.75
2023-03-10T11:41:20.540Z,77.51
2023-03-10T11:42:21.492Z,78.18
2023-03-10T11:43:22.341Z,78.37
2023-03-10T11:44:23.616Z,77.7
2023-03-10T11:45:23.878Z,77.13
2023-03-10T11:46:24.563Z,78.28
2023-03-10T11:47:25.462Z,78.51
2023-03-10T11:48:25.704Z,77.94
2023-03-10T11:49:25.763Z,76.4
2023-03-10T11:50:27.270Z,73.67
2023-03-10T11:51:27.773Z,73.1
2023-03-10T11:52:28.492Z,72.28
2023-03-10T11:53:29.560Z,71.7
2023-03-10T11:54:32.252Z,71.16
2023-03-10T11:55:30.390Z,71.13
2023-03-10T11:56:30.621Z,70.07
2023-03-10T11:57:31.162Z,69.41
2023-03-10T11:58:32.158Z,70.17
2023-03-10T11:59:32.514Z,72.18
2023-03-10T12:00:33.050Z,73.04
2023-03-10T12:01:33.002Z,73.23
2023-03-10T12:02:33.564Z,73.29
2023-03-10T12:03:33.923Z,73.77
2023-03-10T12:04:34.250Z,74.34
2023-03-10T12:05:35.250Z,74.73
2023-03-10T12:06:36.085Z,75.39
2023-03-10T12:07:36.645Z,74.91
2023-03-10T12:08:36.609Z,74.78
2023-03-10T12:09:37.984Z,75.45
2023-03-10T12:10:37.965Z,76.82
2023-03-10T12:11:39.200Z,76.69
2023-03-10T12:12:40.142Z,75.54
2023-03-10T12:13:40.111Z,75.39
2023-03-10T12:14:41.363Z,75.01
2023-03-10T12:15:41.341Z,75.2
2023-03-10T12:16:41.875Z,74.91
2023-03-10T12:17:41.854Z,74.34
2023-03-10T12:18:43.098Z,74.24
2023-03-10T12:19:43.849Z,73.99
2023-03-10T12:20:44.082Z,75.71
2023-03-10T12:21:44.328Z,75.14
2023-03-10T12:22:45.238Z,74.9
2023-03-10T12:23:46.215Z,74.99
2023-03-10T12:24:46.560Z,74.07
2023-03-10T12:25:47.532Z,72.25
2023-03-10T12:26:47.765Z,73.02
2023-03-10T12:27:48.280Z,71.52
2023-03-10T12:28:49.259Z,70.37
2023-03-10T12:29:49.638Z,69.51
2023-03-10T12:30:50.339Z,67.98
2023-03-10T12:31:51.239Z,69.48
2023-03-10T12:32:51.753Z,68.71
2023-03-10T12:33:52.013Z,65.94
2023-03-10T12:34:52.227Z,64.98
2023-03-10T12:35:53.087Z,63.93
2023-03-10T12:36:54.002Z,63.23
2023-03-10T12:37:54.216Z,63.89
2023-03-10T12:38:55.162Z,63.51
2023-03-10T12:39:56.259Z,63.39
2023-03-10T12:40:56.975Z,63.86
2023-03-10T12:41:57.285Z,64.31
2023-03-10T12:42:58.224Z,64.98
2023-03-10T12:43:58.191Z,65.2
2023-03-10T12:44:58.434Z,65.3
2023-03-10T12:45:58.958Z,65.58
2023-03-10T12:46:59.695Z,65.33
2023-03-10T12:47:59.642Z,65.81
2023-03-10T12:48:59.576Z,65.17
2023-03-10T12:50:00.395Z,64.5
2023-03-10T12:51:01.044Z,63.16
2023-03-10T12:52:01.717Z,62.49
2023-03-10T12:53:02.164Z,62.87
2023-03-10T12:54:02.392Z,63.16
2023-03-10T12:55:02.660Z,63.45
2023-03-10T12:56:02.623Z,63.54
2023-03-10T12:57:03.266Z,64.88
2023-03-10T12:58:04.670Z,65.84
2023-03-10T12:59:05.277Z,66.47
2023-03-10T13:00:05.664Z,67.53
2023-03-10T13:01:06.560Z,68.45
2023-03-10T13:02:07.086Z,68.55